sensor_id;sensor_type;location;lat;lon;timestamp;P1;durP1;ratioP1;P2;durP2;ratioP2
5929;SDS011;2990;48.746;9.236;2022-11-20T10:19:47;143.20;;;137.05;;
5929;SDS011;2990;48.746;9.236;2022-11-20T10:25:15;365.05;;;345.63;;
5929;SDS011;2990;48.746;9.236;2022-11-20T10:30:15;447.42;;;422.58;;
5929;SDS011;2990;48.746;9.236;2022-11-20T10:32:43;447.67;;;422.85;;
5929;SDS011;2990;48.746;9.236;2022-11-20T10:35:20;421.17;;;398.30;;
5929;SDS011;2990;48.746;9.236;2022-11-20T10:37:56;436.33;;;412.60;;
5929;SDS011;2990;48.746;9.236;2022-11-20T10:42:55;418.27;;;395.73;;
5929;SDS011;2990;48.746;9.236;2022-11-20T10:47:52;419.80;;;397.27;;
5929;SDS011;2990;48.746;9.236;2022-11-20T10:50:21;444.15;;;420.15;;
5929;SDS011;2990;48.746;9.236;2022-11-20T10:53:02;429.42;;;406.00;;
5929;SDS011;2990;48.746;9.236;2022-11-20T10:55:53;443.95;;;419.58;;
5929;SDS011;2990;48.746;9.236;2022-11-20T11:01:03;450.38;;;425.60;;
5929;SDS011;2990;48.746;9.236;2022-11-20T11:03:30;403.60;;;381.92;;
5929;SDS011;2990;48.746;9.236;2022-11-20T11:06:00;440.00;;;415.70;;
5929;SDS011;2990;48.746;9.236;2022-11-20T11:08:39;409.30;;;387.40;;
5929;SDS011;2990;48.746;9.236;2022-11-20T11:11:18;435.50;;;411.95;;
5929;SDS011;2990;48.746;9.236;2022-11-20T11:13:51;419.27;;;396.50;;
5929;SDS011;2990;48.746;9.236;2022-11-20T11:16:23;439.15;;;414.95;;
5929;SDS011;2990;48.746;9.236;2022-11-20T11:18:51;416.58;;;393.67;;
5929;SDS011;2990;48.746;9.236;2022-11-20T11:21:27;401.60;;;379.92;;
5929;SDS011;2990;48.746;9.236;2022-11-20T11:23:58;421.63;;;398.95;;
5929;SDS011;2990;48.746;9.236;2022-11-20T11:26:25;430.77;;;407.42;;
5929;SDS011;2990;48.746;9.236;2022-11-20T11:28:56;453.85;;;428.67;;
5929;SDS011;2990;48.746;9.236;2022-11-20T11:31:27;412.65;;;390.20;;
5929;SDS011;2990;48.746;9.236;2022-11-20T11:34:13;459.65;;;433.83;;
5929;SDS011;2990;48.746;9.236;2022-11-20T11:36:40;416.67;;;393.80;;
5929;SDS011;2990;48.746;9.236;2022-11-20T11:39:17;441.90;;;417.30;;
5929;SDS011;2990;48.746;9.236;2022-11-20T11:41:44;437.60;;;413.70;;
5929;SDS011;2990;48.746;9.236;2022-11-20T11:46:58;396.00;;;374.67;;
5929;SDS011;2990;48.746;9.236;2022-11-20T11:49:24;426.83;;;403.67;;
5929;SDS011;2990;48.746;9.236;2022-11-20T11:52:01;385.98;;;365.63;;
5929;SDS011;2990;48.746;9.236;2022-11-20T12:00:03;293.92;;;279.50;;
5929;SDS011;2990;48.746;9.236;2022-11-20T12:02:54;266.27;;;253.32;;
5929;SDS011;2990;48.746;9.236;2022-11-20T12:05:38;314.45;;;298.83;;
5929;SDS011;2990;48.746;9.236;2022-11-20T12:11:00;330.67;;;313.55;;
5929;SDS011;2990;48.746;9.236;2022-11-20T12:13:37;436.02;;;412.13;;
5929;SDS011;2990;48.746;9.236;2022-11-20T12:16:11;443.40;;;418.65;;
5929;SDS011;2990;48.746;9.236;2022-11-20T12:18:39;517.22;;;486.60;;
5929;SDS011;2990;48.746;9.236;2022-11-20T12:23:47;550.03;;;516.60;;
5929;SDS011;2990;48.746;9.236;2022-11-20T12:27:26;501.33;;;471.83;;
5929;SDS011;2990;48.746;9.236;2022-11-20T12:29:58;464.60;;;437.90;;
5929;SDS011;2990;48.746;9.236;2022-11-20T12:35:48;359.67;;;340.60;;
5929;SDS011;2990;48.746;9.236;2022-11-20T12:47:39;239.70;;;228.20;;
5929;SDS011;2990;48.746;9.236;2022-11-20T12:50:17;236.80;;;225.57;;
5929;SDS011;2990;48.746;9.236;2022-11-20T12:53:11;284.83;;;270.73;;
5929;SDS011;2990;48.746;9.236;2022-11-20T12:56:11;309.27;;;293.73;;
5929;SDS011;2990;48.746;9.236;2022-11-20T13:01:32;299.55;;;284.55;;
5929;SDS011;2990;48.746;9.236;2022-11-20T13:06:46;271.50;;;258.17;;
5929;SDS011;2990;48.746;9.236;2022-11-20T13:09:12;250.23;;;237.90;;
5929;SDS011;2990;48.746;9.236;2022-11-20T13:11:42;269.60;;;256.27;;
5929;SDS011;2990;48.746;9.236;2022-11-20T13:17:43;235.68;;;224.27;;
5929;SDS011;2990;48.746;9.236;2022-11-20T13:20:23;219.52;;;209.02;;
5929;SDS011;2990;48.746;9.236;2022-11-20T13:22:53;232.57;;;221.40;;
5929;SDS011;2990;48.746;9.236;2022-11-20T13:25:22;241.50;;;229.68;;
5929;SDS011;2990;48.746;9.236;2022-11-20T13:28:48;214.85;;;204.60;;
5929;SDS011;2990;48.746;9.236;2022-11-20T13:30:49;205.95;;;196.25;;
5929;SDS011;2990;48.746;9.236;2022-11-20T13:33:36;216.52;;;206.27;;
5929;SDS011;2990;48.746;9.236;2022-11-20T13:36:04;228.43;;;217.18;;
5929;SDS011;2990;48.746;9.236;2022-11-20T13:38:46;208.95;;;199.00;;
5929;SDS011;2990;48.746;9.236;2022-11-20T13:41:22;235.80;;;224.25;;
5929;SDS011;2990;48.746;9.236;2022-11-20T13:43:52;211.13;;;201.05;;
5929;SDS011;2990;48.746;9.236;2022-11-20T13:46:22;214.23;;;203.95;;
5929;SDS011;2990;48.746;9.236;2022-11-20T13:48:49;235.38;;;223.88;;
5929;SDS011;2990;48.746;9.236;2022-11-20T13:56:50;259.55;;;246.85;;
5929;SDS011;2990;48.746;9.236;2022-11-20T13:59:44;244.00;;;232.00;;
5929;SDS011;2990;48.746;9.236;2022-11-20T14:02:18;261.25;;;248.30;;
5929;SDS011;2990;48.746;9.236;2022-11-20T14:04:47;287.75;;;273.33;;
5929;SDS011;2990;48.746;9.236;2022-11-20T14:07:15;280.73;;;266.65;;
5929;SDS011;2990;48.746;9.236;2022-11-20T14:09:53;285.83;;;271.17;;
5929;SDS011;2990;48.746;9.236;2022-11-20T14:12:30;259.33;;;246.52;;
5929;SDS011;2990;48.746;9.236;2022-11-20T14:14:57;294.65;;;279.67;;
5929;SDS011;2990;48.746;9.236;2022-11-20T14:17:24;308.48;;;292.45;;
5929;SDS011;2990;48.746;9.236;2022-11-20T14:19:54;288.83;;;274.00;;
5929;SDS011;2990;48.746;9.236;2022-11-20T14:22:25;271.05;;;257.35;;
5929;SDS011;2990;48.746;9.236;2022-11-20T14:27:40;206.80;;;196.98;;
5929;SDS011;2990;48.746;9.236;2022-11-20T14:30:50;213.98;;;203.80;;
5929;SDS011;2990;48.746;9.236;2022-11-20T14:33:09;180.52;;;172.10;;
5929;SDS011;2990;48.746;9.236;2022-11-20T14:35:37;199.65;;;190.25;;
5929;SDS011;2990;48.746;9.236;2022-11-20T14:38:10;157.23;;;150.25;;
5929;SDS011;2990;48.746;9.236;2022-11-20T14:40:38;129.52;;;123.78;;
5929;SDS011;2990;48.746;9.236;2022-11-20T14:43:17;149.85;;;143.23;;
5929;SDS011;2990;48.746;9.236;2022-11-20T14:48:29;126.60;;;121.05;;
5929;SDS011;2990;48.746;9.236;2022-11-20T14:50:57;144.50;;;138.07;;
5929;SDS011;2990;48.746;9.236;2022-11-20T14:53:23;144.35;;;138.00;;
5929;SDS011;2990;48.746;9.236;2022-11-20T14:55:57;135.35;;;129.40;;
5929;SDS011;2990;48.746;9.236;2022-11-20T14:58:31;151.75;;;145.00;;
5929;SDS011;2990;48.746;9.236;2022-11-20T15:01:06;151.35;;;144.68;;
5929;SDS011;2990;48.746;9.236;2022-11-20T15:03:36;148.73;;;142.15;;
5929;SDS011;2990;48.746;9.236;2022-11-20T15:06:10;162.07;;;154.82;;
5929;SDS011;2990;48.746;9.236;2022-11-20T15:08:50;166.65;;;157.95;;
5929;SDS011;2990;48.746;9.236;2022-11-20T15:11:17;172.23;;;163.73;;
5929;SDS011;2990;48.746;9.236;2022-11-20T15:13:44;165.55;;;158.07;;
5929;SDS011;2990;48.746;9.236;2022-11-20T15:16:17;158.88;;;151.73;;
5929;SDS011;2990;48.746;9.236;2022-11-20T15:18:46;177.93;;;166.18;;
5929;SDS011;2990;48.746;9.236;2022-11-20T15:21:14;163.55;;;156.13;;
5929;SDS011;2990;48.746;9.236;2022-11-20T15:23:41;156.70;;;149.80;;
5929;SDS011;2990;48.746;9.236;2022-11-20T15:26:10;148.73;;;142.13;;
5929;SDS011;2990;48.746;9.236;2022-11-20T15:31:05;151.68;;;144.77;;
5929;SDS011;2990;48.746;9.236;2022-11-20T15:33:47;129.90;;;124.30;;
5929;SDS011;2990;48.746;9.236;2022-11-20T15:36:13;125.40;;;120.00;;
5929;SDS011;2990;48.746;9.236;2022-11-20T15:38:39;141.27;;;135.07;;
5929;SDS011;2990;48.746;9.236;2022-11-20T15:41:07;146.52;;;140.05;;
5929;SDS011;2990;48.746;9.236;2022-11-20T15:43:33;142.70;;;136.43;;
5929;SDS011;2990;48.746;9.236;2022-11-20T15:46:33;159.77;;;152.73;;
5929;SDS011;2990;48.746;9.236;2022-11-20T15:48:54;147.70;;;141.15;;
5929;SDS011;2990;48.746;9.236;2022-11-20T15:51:24;155.10;;;148.23;;
5929;SDS011;2990;48.746;9.236;2022-11-20T15:53:55;133.18;;;127.30;;
5929;SDS011;2990;48.746;9.236;2022-11-20T15:56:21;152.90;;;146.13;;
5929;SDS011;2990;48.746;9.236;2022-11-20T15:58:47;153.52;;;146.75;;
5929;SDS011;2990;48.746;9.236;2022-11-20T16:01:17;157.63;;;150.50;;
5929;SDS011;2990;48.746;9.236;2022-11-20T16:03:44;165.63;;;158.15;;
5929;SDS011;2990;48.746;9.236;2022-11-20T16:06:10;183.75;;;175.48;;
5929;SDS011;2990;48.746;9.236;2022-11-20T16:08:36;180.07;;;171.88;;
5929;SDS011;2990;48.746;9.236;2022-11-20T16:11:02;207.27;;;197.70;;
5929;SDS011;2990;48.746;9.236;2022-11-20T16:13:28;170.32;;;162.65;;
5929;SDS011;2990;48.746;9.236;2022-11-20T16:16:18;179.18;;;171.15;;
5929;SDS011;2990;48.746;9.236;2022-11-20T16:18:47;174.77;;;166.88;;
5929;SDS011;2990;48.746;9.236;2022-11-20T16:21:13;206.45;;;197.00;;
5929;SDS011;2990;48.746;9.236;2022-11-20T16:23:38;203.55;;;194.23;;
5929;SDS011;2990;48.746;9.236;2022-11-20T16:26:17;213.18;;;203.27;;
5929;SDS011;2990;48.746;9.236;2022-11-20T16:28:43;206.25;;;196.57;;
5929;SDS011;2990;48.746;9.236;2022-11-20T16:33:36;219.30;;;209.20;;
5929;SDS011;2990;48.746;9.236;2022-11-20T16:36:06;237.32;;;225.98;;
5929;SDS011;2990;48.746;9.236;2022-11-20T16:38:36;201.70;;;192.43;;
5929;SDS011;2990;48.746;9.236;2022-11-20T16:41:01;244.98;;;233.55;;
5929;SDS011;2990;48.746;9.236;2022-11-20T16:43:28;230.20;;;219.20;;
5929;SDS011;2990;48.746;9.236;2022-11-20T16:45:53;245.55;;;233.93;;
5929;SDS011;2990;48.746;9.236;2022-11-20T16:48:19;263.38;;;250.75;;
5929;SDS011;2990;48.746;9.236;2022-11-20T16:50:49;235.23;;;224.05;;
5929;SDS011;2990;48.746;9.236;2022-11-20T16:53:20;223.85;;;213.38;;
5929;SDS011;2990;48.746;9.236;2022-11-20T16:55:46;239.20;;;227.75;;
5929;SDS011;2990;48.746;9.236;2022-11-20T16:58:13;250.05;;;238.02;;
5929;SDS011;2990;48.746;9.236;2022-11-20T17:00:39;239.13;;;227.75;;
5929;SDS011;2990;48.746;9.236;2022-11-20T17:03:05;269.90;;;256.92;;
5929;SDS011;2990;48.746;9.236;2022-11-20T17:05:31;258.70;;;246.00;;
5929;SDS011;2990;48.746;9.236;2022-11-20T17:07:58;297.88;;;283.30;;
5929;SDS011;2990;48.746;9.236;2022-11-20T17:10:24;251.88;;;238.60;;
5929;SDS011;2990;48.746;9.236;2022-11-20T17:12:50;284.45;;;270.50;;
5929;SDS011;2990;48.746;9.236;2022-11-20T17:15:16;252.10;;;239.85;;
5929;SDS011;2990;48.746;9.236;2022-11-20T17:17:42;288.77;;;274.58;;
5929;SDS011;2990;48.746;9.236;2022-11-20T17:20:08;311.05;;;295.17;;
5929;SDS011;2990;48.746;9.236;2022-11-20T17:22:34;267.17;;;254.13;;
5929;SDS011;2990;48.746;9.236;2022-11-20T17:24:59;286.42;;;272.45;;
5929;SDS011;2990;48.746;9.236;2022-11-20T17:27:25;280.13;;;266.52;;
5929;SDS011;2990;48.746;9.236;2022-11-20T17:29:51;266.92;;;253.80;;
5929;SDS011;2990;48.746;9.236;2022-11-20T17:32:18;273.90;;;260.45;;
5929;SDS011;2990;48.746;9.236;2022-11-20T17:34:44;285.15;;;271.27;;
5929;SDS011;2990;48.746;9.236;2022-11-20T17:37:10;255.73;;;243.55;;
5929;SDS011;2990;48.746;9.236;2022-11-20T17:39:35;224.10;;;213.55;;
5929;SDS011;2990;48.746;9.236;2022-11-20T17:42:01;230.90;;;220.00;;
5929;SDS011;2990;48.746;9.236;2022-11-20T17:44:45;216.82;;;206.80;;
5929;SDS011;2990;48.746;9.236;2022-11-20T17:47:11;201.93;;;192.60;;
5929;SDS011;2990;48.746;9.236;2022-11-20T17:49:37;194.90;;;185.95;;
5929;SDS011;2990;48.746;9.236;2022-11-20T17:52:03;199.10;;;190.00;;
5929;SDS011;2990;48.746;9.236;2022-11-20T17:54:28;175.07;;;167.20;;
5929;SDS011;2990;48.746;9.236;2022-11-20T17:56:54;191.35;;;182.60;;
5929;SDS011;2990;48.746;9.236;2022-11-20T17:59:38;143.32;;;137.02;;
5929;SDS011;2990;48.746;9.236;2022-11-20T18:02:04;173.48;;;165.73;;
5929;SDS011;2990;48.746;9.236;2022-11-20T18:04:29;155.35;;;148.57;;
5929;SDS011;2990;48.746;9.236;2022-11-20T18:06:55;149.25;;;142.77;;
5929;SDS011;2990;48.746;9.236;2022-11-20T18:09:21;134.68;;;128.80;;
5929;SDS011;2990;48.746;9.236;2022-11-20T18:11:46;129.88;;;124.25;;
5929;SDS011;2990;48.746;9.236;2022-11-20T18:14:13;138.52;;;132.55;;
5929;SDS011;2990;48.746;9.236;2022-11-20T18:17:10;123.55;;;118.22;;
5929;SDS011;2990;48.746;9.236;2022-11-20T18:19:38;141.45;;;135.32;;
5929;SDS011;2990;48.746;9.236;2022-11-20T18:22:08;117.18;;;112.13;;
5929;SDS011;2990;48.746;9.236;2022-11-20T18:24:35;117.95;;;112.88;;
5929;SDS011;2990;48.746;9.236;2022-11-20T18:27:02;121.70;;;116.45;;
5929;SDS011;2990;48.746;9.236;2022-11-20T18:29:28;137.88;;;131.93;;
5929;SDS011;2990;48.746;9.236;2022-11-20T18:31:55;127.20;;;121.72;;
5929;SDS011;2990;48.746;9.236;2022-11-20T18:34:21;146.90;;;140.50;;
5929;SDS011;2990;48.746;9.236;2022-11-20T18:36:47;136.27;;;130.40;;
5929;SDS011;2990;48.746;9.236;2022-11-20T18:39:13;142.18;;;135.93;;
5929;SDS011;2990;48.746;9.236;2022-11-20T18:41:39;156.38;;;149.45;;
5929;SDS011;2990;48.746;9.236;2022-11-20T18:44:25;161.27;;;154.15;;
5929;SDS011;2990;48.746;9.236;2022-11-20T18:47:12;128.70;;;123.13;;
5929;SDS011;2990;48.746;9.236;2022-11-20T18:49:47;161.38;;;154.18;;
5929;SDS011;2990;48.746;9.236;2022-11-20T18:52:16;184.00;;;175.75;;
5929;SDS011;2990;48.746;9.236;2022-11-20T18:54:50;215.07;;;205.10;;
5929;SDS011;2990;48.746;9.236;2022-11-20T18:57:17;191.93;;;182.98;;
5929;SDS011;2990;48.746;9.236;2022-11-20T18:59:44;216.05;;;205.95;;
5929;SDS011;2990;48.746;9.236;2022-11-20T19:02:11;207.65;;;198.05;;
5929;SDS011;2990;48.746;9.236;2022-11-20T19:04:38;207.80;;;198.32;;
5929;SDS011;2990;48.746;9.236;2022-11-20T19:07:04;209.18;;;199.48;;
5929;SDS011;2990;48.746;9.236;2022-11-20T19:09:30;183.48;;;175.13;;
5929;SDS011;2990;48.746;9.236;2022-11-20T19:11:55;183.73;;;175.50;;
5929;SDS011;2990;48.746;9.236;2022-11-20T19:14:21;200.13;;;190.98;;
5929;SDS011;2990;48.746;9.236;2022-11-20T19:16:47;186.93;;;178.63;;
5929;SDS011;2990;48.746;9.236;2022-11-20T19:19:13;208.60;;;198.95;;
5929;SDS011;2990;48.746;9.236;2022-11-20T19:21:38;250.20;;;238.57;;
5929;SDS011;2990;48.746;9.236;2022-11-20T19:24:05;183.80;;;175.52;;
5929;SDS011;2990;48.746;9.236;2022-11-20T19:26:30;187.15;;;178.80;;
5929;SDS011;2990;48.746;9.236;2022-11-20T19:28:59;188.25;;;179.85;;
5929;SDS011;2990;48.746;9.236;2022-11-20T19:31:25;180.95;;;172.98;;
5929;SDS011;2990;48.746;9.236;2022-11-20T19:33:52;181.32;;;173.20;;
5929;SDS011;2990;48.746;9.236;2022-11-20T19:36:22;166.63;;;159.30;;
5929;SDS011;2990;48.746;9.236;2022-11-20T19:38:50;169.00;;;161.57;;
5929;SDS011;2990;48.746;9.236;2022-11-20T19:41:18;192.15;;;183.52;;
5929;SDS011;2990;48.746;9.236;2022-11-20T19:43:45;151.88;;;145.30;;
5929;SDS011;2990;48.746;9.236;2022-11-20T19:46:17;142.52;;;136.38;;
5929;SDS011;2990;48.746;9.236;2022-11-20T19:48:44;138.52;;;132.63;;
5929;SDS011;2990;48.746;9.236;2022-11-20T19:51:17;130.95;;;125.30;;
5929;SDS011;2990;48.746;9.236;2022-11-20T19:53:45;135.60;;;129.82;;
5929;SDS011;2990;48.746;9.236;2022-11-20T19:56:10;148.55;;;141.98;;
5929;SDS011;2990;48.746;9.236;2022-11-20T19:58:36;142.02;;;135.95;;
5929;SDS011;2990;48.746;9.236;2022-11-20T20:01:10;149.13;;;142.70;;
5929;SDS011;2990;48.746;9.236;2022-11-20T20:03:38;145.48;;;139.13;;
5929;SDS011;2990;48.746;9.236;2022-11-20T20:06:05;149.30;;;142.93;;
5929;SDS011;2990;48.746;9.236;2022-11-20T20:08:33;154.40;;;147.75;;
5929;SDS011;2990;48.746;9.236;2022-11-20T20:10:59;137.50;;;131.52;;
5929;SDS011;2990;48.746;9.236;2022-11-20T20:13:25;134.48;;;128.63;;
5929;SDS011;2990;48.746;9.236;2022-11-20T20:15:51;133.80;;;128.10;;
5929;SDS011;2990;48.746;9.236;2022-11-20T20:18:17;135.32;;;129.52;;
5929;SDS011;2990;48.746;9.236;2022-11-20T20:20:42;118.75;;;113.68;;
5929;SDS011;2990;48.746;9.236;2022-11-20T20:23:08;133.10;;;127.35;;
5929;SDS011;2990;48.746;9.236;2022-11-20T20:25:37;132.95;;;127.28;;
5929;SDS011;2990;48.746;9.236;2022-11-20T20:28:03;137.57;;;131.68;;
5929;SDS011;2990;48.746;9.236;2022-11-20T20:30:29;140.30;;;134.27;;
5929;SDS011;2990;48.746;9.236;2022-11-20T20:32:54;141.43;;;135.38;;
5929;SDS011;2990;48.746;9.236;2022-11-20T20:35:20;155.27;;;148.55;;
5929;SDS011;2990;48.746;9.236;2022-11-20T20:37:45;131.48;;;125.88;;
5929;SDS011;2990;48.746;9.236;2022-11-20T20:40:11;141.32;;;135.23;;
5929;SDS011;2990;48.746;9.236;2022-11-20T20:42:37;116.47;;;111.50;;
5929;SDS011;2990;48.746;9.236;2022-11-20T20:45:02;148.18;;;141.77;;
5929;SDS011;2990;48.746;9.236;2022-11-20T20:47:35;134.82;;;128.98;;
5929;SDS011;2990;48.746;9.236;2022-11-20T20:50:05;160.65;;;153.63;;
5929;SDS011;2990;48.746;9.236;2022-11-20T20:52:33;152.95;;;146.35;;
5929;SDS011;2990;48.746;9.236;2022-11-20T20:54:59;144.48;;;138.30;;
5929;SDS011;2990;48.746;9.236;2022-11-20T20:57:25;143.60;;;137.40;;
5929;SDS011;2990;48.746;9.236;2022-11-20T20:59:52;140.43;;;134.30;;
5929;SDS011;2990;48.746;9.236;2022-11-20T21:02:19;170.50;;;162.93;;
5929;SDS011;2990;48.746;9.236;2022-11-20T21:04:49;120.88;;;115.78;;
5929;SDS011;2990;48.746;9.236;2022-11-20T21:07:15;131.52;;;125.95;;
5929;SDS011;2990;48.746;9.236;2022-11-20T21:09:41;118.10;;;113.13;;
5929;SDS011;2990;48.746;9.236;2022-11-20T21:12:07;139.52;;;133.55;;
5929;SDS011;2990;48.746;9.236;2022-11-20T21:14:33;130.15;;;124.57;;
5929;SDS011;2990;48.746;9.236;2022-11-20T21:16:58;127.03;;;121.65;;
5929;SDS011;2990;48.746;9.236;2022-11-20T21:19:24;108.30;;;103.78;;
5929;SDS011;2990;48.746;9.236;2022-11-20T21:21:49;110.25;;;105.63;;
5929;SDS011;2990;48.746;9.236;2022-11-20T21:24:31;129.15;;;123.68;;
5929;SDS011;2990;48.746;9.236;2022-11-20T21:26:58;119.97;;;114.93;;
5929;SDS011;2990;48.746;9.236;2022-11-20T21:29:25;112.97;;;108.20;;
5929;SDS011;2990;48.746;9.236;2022-11-20T21:31:51;116.78;;;111.82;;
5929;SDS011;2990;48.746;9.236;2022-11-20T21:34:21;124.22;;;118.97;;
5929;SDS011;2990;48.746;9.236;2022-11-20T21:36:47;112.68;;;107.93;;
5929;SDS011;2990;48.746;9.236;2022-11-20T21:39:14;106.43;;;101.88;;
5929;SDS011;2990;48.746;9.236;2022-11-20T21:41:40;117.78;;;112.82;;
5929;SDS011;2990;48.746;9.236;2022-11-20T21:44:06;122.35;;;117.18;;
5929;SDS011;2990;48.746;9.236;2022-11-20T21:46:37;110.53;;;105.85;;
5929;SDS011;2990;48.746;9.236;2022-11-20T21:49:07;106.22;;;101.70;;
5929;SDS011;2990;48.746;9.236;2022-11-20T21:51:34;103.68;;;99.32;;
5929;SDS011;2990;48.746;9.236;2022-11-20T21:53:59;97.28;;;93.18;;
5929;SDS011;2990;48.746;9.236;2022-11-20T21:56:25;103.72;;;99.32;;
5929;SDS011;2990;48.746;9.236;2022-11-20T21:58:52;90.82;;;87.05;;
5929;SDS011;2990;48.746;9.236;2022-11-20T22:01:22;108.80;;;104.20;;
5929;SDS011;2990;48.746;9.236;2022-11-20T22:03:51;104.97;;;100.57;;
5929;SDS011;2990;48.746;9.236;2022-11-20T22:06:18;97.03;;;92.97;;
5929;SDS011;2990;48.746;9.236;2022-11-20T22:08:45;103.53;;;99.18;;
5929;SDS011;2990;48.746;9.236;2022-11-20T22:11:12;107.95;;;103.40;;
5929;SDS011;2990;48.746;9.236;2022-11-20T22:13:39;103.28;;;98.95;;
5929;SDS011;2990;48.746;9.236;2022-11-20T22:16:24;88.35;;;84.70;;
5929;SDS011;2990;48.746;9.236;2022-11-20T22:18:50;120.15;;;115.07;;
5929;SDS011;2990;48.746;9.236;2022-11-20T22:21:19;129.88;;;124.38;;
5929;SDS011;2990;48.746;9.236;2022-11-20T22:23:48;108.95;;;104.35;;
5929;SDS011;2990;48.746;9.236;2022-11-20T22:26:16;110.63;;;105.93;;
5929;SDS011;2990;48.746;9.236;2022-11-20T22:28:45;132.63;;;126.95;;
5929;SDS011;2990;48.746;9.236;2022-11-20T22:31:12;113.28;;;108.45;;
5929;SDS011;2990;48.746;9.236;2022-11-20T22:33:38;143.88;;;137.63;;
5929;SDS011;2990;48.746;9.236;2022-11-20T22:36:08;121.20;;;116.05;;
5929;SDS011;2990;48.746;9.236;2022-11-20T22:38:38;147.98;;;141.48;;
5929;SDS011;2990;48.746;9.236;2022-11-20T22:41:05;157.13;;;150.23;;
5929;SDS011;2990;48.746;9.236;2022-11-20T22:43:32;135.63;;;129.75;;
5929;SDS011;2990;48.746;9.236;2022-11-20T22:46:00;166.50;;;159.18;;
5929;SDS011;2990;48.746;9.236;2022-11-20T22:48:31;157.13;;;150.20;;
5929;SDS011;2990;48.746;9.236;2022-11-20T22:51:05;168.27;;;160.77;;
5929;SDS011;2990;48.746;9.236;2022-11-20T22:53:32;158.85;;;151.93;;
5929;SDS011;2990;48.746;9.236;2022-11-20T22:55:59;173.40;;;165.73;;
5929;SDS011;2990;48.746;9.236;2022-11-20T22:58:29;144.77;;;138.43;;
5929;SDS011;2990;48.746;9.236;2022-11-20T23:00:56;146.13;;;139.77;;
5929;SDS011;2990;48.746;9.236;2022-11-20T23:03:33;161.65;;;154.55;;
5929;SDS011;2990;48.746;9.236;2022-11-20T23:05:59;176.63;;;168.82;;
5929;SDS011;2990;48.746;9.236;2022-11-20T23:08:25;165.80;;;158.45;;
5929;SDS011;2990;48.746;9.236;2022-11-20T23:10:51;159.30;;;152.25;;
5929;SDS011;2990;48.746;9.236;2022-11-20T23:13:22;134.88;;;129.00;;
5929;SDS011;2990;48.746;9.236;2022-11-20T23:15:48;158.30;;;151.23;;
5929;SDS011;2990;48.746;9.236;2022-11-20T23:18:13;195.77;;;187.05;;
5929;SDS011;2990;48.746;9.236;2022-11-20T23:20:39;163.68;;;156.48;;
5929;SDS011;2990;48.746;9.236;2022-11-20T23:23:04;182.25;;;174.23;;
5929;SDS011;2990;48.746;9.236;2022-11-20T23:25:30;176.40;;;168.63;;
5929;SDS011;2990;48.746;9.236;2022-11-20T23:27:56;152.07;;;145.40;;
5929;SDS011;2990;48.746;9.236;2022-11-20T23:30:21;151.18;;;144.45;;
5929;SDS011;2990;48.746;9.236;2022-11-20T23:32:47;160.82;;;153.82;;
5929;SDS011;2990;48.746;9.236;2022-11-20T23:35:12;144.43;;;138.13;;
5929;SDS011;2990;48.746;9.236;2022-11-20T23:37:38;142.18;;;136.07;;
5929;SDS011;2990;48.746;9.236;2022-11-20T23:40:03;155.75;;;149.02;;
5929;SDS011;2990;48.746;9.236;2022-11-20T23:42:29;119.97;;;114.78;;
5929;SDS011;2990;48.746;9.236;2022-11-20T23:44:55;142.93;;;136.77;;
5929;SDS011;2990;48.746;9.236;2022-11-20T23:47:20;145.98;;;139.70;;
5929;SDS011;2990;48.746;9.236;2022-11-20T23:49:46;150.77;;;144.23;;
5929;SDS011;2990;48.746;9.236;2022-11-20T23:52:11;150.75;;;144.23;;
5929;SDS011;2990;48.746;9.236;2022-11-20T23:54:37;155.95;;;149.10;;
5929;SDS011;2990;48.746;9.236;2022-11-20T23:57:02;150.88;;;144.23;;
5929;SDS011;2990;48.746;9.236;2022-11-20T23:59:28;171.38;;;163.73;;
